Time;durP1;ratioP1;P1;durP2;ratioP2;P2;SDS_P1;SDS_P2;PMS_P1;PMS_P2;Temp;Humidity;BMP_temperature;BMP_pressure;BME280_temperature;BME280_humidity;BME280_pressure;Samples;Min_cycle;Max_cycle;Signal;HPM_P1;HPM_P2
2023/12/28 00:02:00;;;;;;;2.88;1.20;;;;;;;;;;4994507;28;20298;-84
2023/12/28 00:04:34;;;;;;;3.38;1.40;;;;;;;;;;5012144;28;20194;-82
2023/12/28 00:07:05;;;;;;;3.60;1.10;;;;;;;;;;5009792;28;20287;-82
2023/12/28 00:09:35;;;;;;;2.47;1.17;;;;;;;;;;5007919;28;20223;-82
2023/12/28 00:12:05;;;;;;;1.98;1.00;;;;;;;;;;5006305;28;20213;-83
2023/12/28 00:14:35;;;;;;;3.00;1.10;;;;;;;;;;5008014;28;20199;-83
2023/12/28 00:17:07;;;;;;;3.75;1.40;;;;;;;;;;5012331;28;20206;-84
2023/12/28 00:19:37;;;;;;;1.75;1.10;;;;;;;;;;5010838;28;20554;-81
2023/12/28 00:22:07;;;;;;;2.80;1.13;;;;;;;;;;5010800;28;20281;-85
2023/12/28 00:24:37;;;;;;;1.92;1.30;;;;;;;;;;5001175;28;20201;-85
2023/12/28 00:27:07;;;;;;;2.20;1.65;;;;;;;;;;5009662;28;20652;-85
2023/12/28 00:29:38;;;;;;;2.22;1.10;;;;;;;;;;5013035;28;20226;-85
2023/12/28 00:32:10;;;;;;;6.75;1.17;;;;;;;;;;5012628;28;20241;-82
2023/12/28 00:34:40;;;;;;;3.55;1.05;;;;;;;;;;5013291;28;20191;-84
2023/12/28 00:37:10;;;;;;;1.60;1.20;;;;;;;;;;5012865;28;20206;-82
2023/12/28 00:39:40;;;;;;;3.72;1.45;;;;;;;;;;5013506;28;20211;-81
2023/12/28 00:42:10;;;;;;;2.80;1.00;;;;;;;;;;5013306;28;20199;-85
2023/12/28 00:44:41;;;;;;;2.65;0.95;;;;;;;;;;4997619;28;20629;-82
2023/12/28 00:47:13;;;;;;;4.45;1.27;;;;;;;;;;4995395;28;20196;-82
2023/12/28 00:49:43;;;;;;;8.90;1.55;;;;;;;;;;5007943;28;20229;-81
2023/12/28 00:52:13;;;;;;;1.30;1.10;;;;;;;;;;5013426;28;20541;-79
2023/12/28 00:54:43;;;;;;;1.10;1.00;;;;;;;;;;5012222;28;20577;-81
2023/12/28 00:57:12;;;;;;;2.60;1.33;;;;;;;;;;4996073;28;20699;-78
2023/12/28 00:59:43;;;;;;;2.67;1.20;;;;;;;;;;4996477;28;20236;-80
2023/12/28 01:02:15;;;;;;;10.15;1.40;;;;;;;;;;5005077;28;20582;-88
2023/12/28 01:04:45;;;;;;;4.10;1.00;;;;;;;;;;5016679;28;20191;-85
2023/12/28 01:07:15;;;;;;;2.03;1.27;;;;;;;;;;5013810;28;20285;-86
2023/12/28 01:09:45;;;;;;;6.82;1.80;;;;;;;;;;5016860;28;20237;-84
2023/12/28 01:12:15;;;;;;;2.58;1.30;;;;;;;;;;5001041;28;20497;-84
2023/12/28 01:14:45;;;;;;;5.38;1.15;;;;;;;;;;5013521;28;20202;-80
2023/12/28 01:17:18;;;;;;;4.32;1.45;;;;;;;;;;5016064;28;20203;-84
2023/12/28 01:19:48;;;;;;;1.88;1.00;;;;;;;;;;5016733;28;20650;-84
2023/12/28 01:22:18;;;;;;;4.22;1.17;;;;;;;;;;5016254;28;20226;-81
2023/12/28 01:24:49;;;;;;;3.72;1.08;;;;;;;;;;5011111;28;20200;-80
2023/12/28 01:27:22;;;;;;;2.42;1.10;;;;;;;;;;5011588;28;20195;-84
2023/12/28 01:29:52;;;;;;;2.40;0.93;;;;;;;;;;5015927;28;20229;-83
2023/12/28 01:32:24;;;;;;;2.50;0.80;;;;;;;;;;5006421;28;20207;-84
2023/12/28 01:34:54;;;;;;;1.40;0.90;;;;;;;;;;5013412;28;20269;-83
2023/12/28 01:37:24;;;;;;;1.00;0.90;;;;;;;;;;5014187;28;20214;-79
2023/12/28 01:39:54;;;;;;;2.30;1.10;;;;;;;;;;5023131;28;20195;-86
2023/12/28 01:42:24;;;;;;;3.65;0.90;;;;;;;;;;5006277;28;20195;-86
2023/12/28 01:44:54;;;;;;;3.35;1.10;;;;;;;;;;5008559;28;20202;-84
2023/12/28 01:47:25;;;;;;;1.90;0.90;;;;;;;;;;5009253;28;20194;-80
2023/12/28 01:49:55;;;;;;;1.77;0.80;;;;;;;;;;5012995;28;20215;-78
2023/12/28 01:52:25;;;;;;;2.15;1.00;;;;;;;;;;5008697;28;20204;-83
2023/12/28 01:54:55;;;;;;;1.67;0.98;;;;;;;;;;5015849;28;20202;-83
2023/12/28 01:57:25;;;;;;;1.35;0.80;;;;;;;;;;5015956;28;20195;-81
2023/12/28 01:59:56;;;;;;;1.85;0.82;;;;;;;;;;5014852;28;20218;-83
2023/12/28 02:02:28;;;;;;;2.38;1.00;;;;;;;;;;5013512;28;20193;-84
2023/12/28 02:04:58;;;;;;;1.00;0.90;;;;;;;;;;5015747;28;20229;-82
2023/12/28 02:07:28;;;;;;;1.27;0.95;;;;;;;;;;5013984;28;20209;-79
2023/12/28 02:09:58;;;;;;;2.85;1.00;;;;;;;;;;5013942;28;20227;-83
2023/12/28 02:12:28;;;;;;;1.52;0.80;;;;;;;;;;5014118;28;20202;-83
2023/12/28 02:14:58;;;;;;;1.67;0.98;;;;;;;;;;5011675;28;20289;-85
2023/12/28 02:17:32;;;;;;;3.50;1.40;;;;;;;;;;5014731;28;20211;-83
2023/12/28 02:20:05;;;;;;;5.40;1.50;;;;;;;;;;5014170;28;20195;-84
2023/12/28 02:22:35;;;;;;;1.63;0.90;;;;;;;;;;5013654;28;20662;-83
2023/12/28 02:25:16;;;;;;;2.95;1.00;;;;;;;;;;5015169;28;20297;-83
2023/12/28 02:27:47;;;;;;;2.72;0.85;;;;;;;;;;5014288;28;20611;-82
2023/12/28 02:30:18;;;;;;;2.45;0.90;;;;;;;;;;5013899;28;20225;-80
2023/12/28 02:32:55;;;;;;;3.42;1.05;;;;;;;;;;5015409;28;20195;-83
2023/12/28 02:35:27;;;;;;;4.57;1.20;;;;;;;;;;5017679;28;20197;-76
2023/12/28 02:37:58;;;;;;;3.90;1.23;;;;;;;;;;5020483;28;20195;-81
2023/12/28 02:40:31;;;;;;;3.72;1.00;;;;;;;;;;5018058;28;20310;-84
2023/12/28 02:43:01;;;;;;;1.75;0.80;;;;;;;;;;5014546;28;20187;-76
2023/12/28 02:45:30;;;;;;;7.53;1.00;;;;;;;;;;5013964;28;20195;-80
2023/12/28 02:48:00;;;;;;;1.20;0.68;;;;;;;;;;5006697;28;20278;-78
2023/12/28 02:50:31;;;;;;;4.25;0.93;;;;;;;;;;5012417;28;20223;-83
2023/12/28 02:53:04;;;;;;;1.85;0.90;;;;;;;;;;5014928;28;20654;-77
2023/12/28 02:55:36;;;;;;;1.80;0.73;;;;;;;;;;5013955;28;20597;-81
2023/12/28 02:58:06;;;;;;;1.75;0.65;;;;;;;;;;5001300;28;20225;-80
2023/12/28 03:00:36;;;;;;;0.60;0.52;;;;;;;;;;4994886;28;20203;-79
2023/12/28 03:03:06;;;;;;;1.58;0.68;;;;;;;;;;4994943;28;20548;-81
2023/12/28 03:05:36;;;;;;;2.03;0.93;;;;;;;;;;4995002;28;20562;-87
2023/12/28 03:08:06;;;;;;;3.33;1.02;;;;;;;;;;4994859;28;20203;-77
2023/12/28 03:10:38;;;;;;;2.13;0.60;;;;;;;;;;4997395;28;20305;-80
2023/12/28 03:13:08;;;;;;;1.15;0.70;;;;;;;;;;5014605;28;20187;-81
2023/12/28 03:15:38;;;;;;;2.45;0.60;;;;;;;;;;5011896;28;20203;-79
2023/12/28 03:18:08;;;;;;;1.90;1.00;;;;;;;;;;5012978;28;20217;-81
2023/12/28 03:20:38;;;;;;;0.75;0.60;;;;;;;;;;5014434;28;20210;-79
2023/12/28 03:23:08;;;;;;;3.50;0.80;;;;;;;;;;5012552;28;20205;-79
2023/12/28 03:25:40;;;;;;;1.85;0.80;;;;;;;;;;5014658;28;20659;-79
2023/12/28 03:28:10;;;;;;;3.42;0.70;;;;;;;;;;5014308;28;20192;-86
2023/12/28 03:30:40;;;;;;;1.35;0.70;;;;;;;;;;5013958;28;20697;-81
2023/12/28 03:33:10;;;;;;;3.83;1.15;;;;;;;;;;5013400;28;20194;-77
2023/12/28 03:35:39;;;;;;;0.90;0.73;;;;;;;;;;5005031;28;20693;-80
2023/12/28 03:38:09;;;;;;;2.45;0.70;;;;;;;;;;5005932;28;20201;-77
2023/12/28 03:40:41;;;;;;;1.88;0.65;;;;;;;;;;5014110;28;20663;-83
2023/12/28 03:43:11;;;;;;;1.77;0.70;;;;;;;;;;5013612;28;20202;-79
2023/12/28 03:45:41;;;;;;;1.13;0.70;;;;;;;;;;5013737;28;20313;-82
2023/12/28 03:48:11;;;;;;;1.48;0.50;;;;;;;;;;5015915;28;20216;-79
2023/12/28 03:50:41;;;;;;;0.95;0.70;;;;;;;;;;5013638;28;20226;-76
2023/12/28 03:53:11;;;;;;;0.52;0.50;;;;;;;;;;5013722;28;20199;-80
2023/12/28 03:55:43;;;;;;;1.85;0.70;;;;;;;;;;5009310;28;20231;-82
2023/12/28 03:58:13;;;;;;;1.67;0.57;;;;;;;;;;5013228;28;20218;-79
2023/12/28 04:00:43;;;;;;;0.80;0.60;;;;;;;;;;5012504;28;20233;-80
2023/12/28 04:03:13;;;;;;;2.28;0.70;;;;;;;;;;5013819;28;20207;-80
2023/12/28 04:05:42;;;;;;;0.68;0.50;;;;;;;;;;5013841;28;20195;-80
2023/12/28 04:08:13;;;;;;;1.60;0.60;;;;;;;;;;5014003;28;20209;-80
2023/12/28 04:10:45;;;;;;;2.03;0.70;;;;;;;;;;5013533;28;20214;-82
2023/12/28 04:13:15;;;;;;;1.38;0.70;;;;;;;;;;5002490;28;20550;-80
2023/12/28 04:15:45;;;;;;;1.15;0.60;;;;;;;;;;4997212;28;20212;-79
2023/12/28 04:18:15;;;;;;;3.35;0.55;;;;;;;;;;5008492;28;20665;-80
2023/12/28 04:20:46;;;;;;;1.77;0.80;;;;;;;;;;5009358;28;20195;-79
2023/12/28 04:23:16;;;;;;;1.92;0.90;;;;;;;;;;5013216;28;20590;-77
2023/12/28 04:25:48;;;;;;;2.88;0.90;;;;;;;;;;5013880;28;20194;-80
2023/12/28 04:28:18;;;;;;;1.48;0.70;;;;;;;;;;5007176;28;20202;-79
2023/12/28 04:30:48;;;;;;;1.67;0.70;;;;;;;;;;5006155;28;20230;-81
2023/12/28 04:33:21;;;;;;;1.25;0.70;;;;;;;;;;5012501;28;20201;-80
2023/12/28 04:35:51;;;;;;;0.85;0.60;;;;;;;;;;5016953;28;20594;-82
2023/12/28 04:38:21;;;;;;;1.50;0.80;;;;;;;;;;5015330;28;20595;-80
2023/12/28 04:40:53;;;;;;;0.63;0.52;;;;;;;;;;5006714;28;20651;-78
2023/12/28 04:43:23;;;;;;;0.93;0.60;;;;;;;;;;5016546;28;20191;-80
2023/12/28 04:45:53;;;;;;;2.38;0.60;;;;;;;;;;5016972;28;20201;-80
2023/12/28 04:48:25;;;;;;;1.50;0.65;;;;;;;;;;5017175;28;20198;-77
2023/12/28 04:50:55;;;;;;;1.15;0.73;;;;;;;;;;5016731;28;20215;-79
2023/12/28 04:53:25;;;;;;;2.90;0.60;;;;;;;;;;5012548;28;20656;-80
2023/12/28 04:55:58;;;;;;;1.60;0.60;;;;;;;;;;5019215;28;20607;-81
2023/12/28 04:58:28;;;;;;;1.35;0.45;;;;;;;;;;5014065;28;20214;-80
2023/12/28 05:00:58;;;;;;;2.40;0.60;;;;;;;;;;5014568;28;20278;-79
2023/12/28 05:03:28;;;;;;;1.15;0.50;;;;;;;;;;5016903;28;20580;-78
2023/12/28 05:05:58;;;;;;;1.95;0.52;;;;;;;;;;5008265;28;20561;-83
2023/12/28 05:08:28;;;;;;;3.70;0.70;;;;;;;;;;5012079;28;20207;-80
2023/12/28 05:10:59;;;;;;;1.10;0.63;;;;;;;;;;5016959;28;20227;-84
2023/12/28 05:13:29;;;;;;;0.75;0.65;;;;;;;;;;5015205;28;20571;-82
2023/12/28 05:15:59;;;;;;;0.95;0.60;;;;;;;;;;5017054;28;20588;-82
2023/12/28 05:18:29;;;;;;;2.00;0.80;;;;;;;;;;5006083;28;20290;-83
2023/12/28 05:20:59;;;;;;;2.25;0.70;;;;;;;;;;5016857;28;20289;-81
2023/12/28 05:23:29;;;;;;;0.65;0.50;;;;;;;;;;5009843;28;20560;-78
2023/12/28 05:26:01;;;;;;;1.23;0.60;;;;;;;;;;4999541;28;20196;-81
2023/12/28 05:28:31;;;;;;;2.92;0.63;;;;;;;;;;5007667;28;20279;-81
2023/12/28 05:31:01;;;;;;;1.23;0.60;;;;;;;;;;5014589;28;20333;-83
2023/12/28 05:33:31;;;;;;;1.10;0.47;;;;;;;;;;5015385;28;20198;-82
2023/12/28 05:36:02;;;;;;;2.78;0.60;;;;;;;;;;5014424;28;20187;-78
2023/12/28 05:38:31;;;;;;;2.08;0.60;;;;;;;;;;4998707;28;20246;-82
2023/12/28 05:41:03;;;;;;;1.13;0.60;;;;;;;;;;5015905;28;20252;-79
2023/12/28 05:43:33;;;;;;;1.25;0.55;;;;;;;;;;5031079;28;20198;-80
2023/12/28 05:46:03;;;;;;;1.27;0.63;;;;;;;;;;5016225;28;20212;-80
2023/12/28 05:48:33;;;;;;;0.55;0.50;;;;;;;;;;4996487;28;20207;-81
2023/12/28 05:51:03;;;;;;;2.30;0.55;;;;;;;;;;5003367;28;20231;-79
2023/12/28 05:53:34;;;;;;;1.77;0.50;;;;;;;;;;5022442;28;20750;-80
2023/12/28 05:56:06;;;;;;;3.08;0.82;;;;;;;;;;5006373;28;20321;-80
2023/12/28 05:58:36;;;;;;;1.10;0.60;;;;;;;;;;5015821;28;20226;-81
2023/12/28 06:01:06;;;;;;;1.15;0.52;;;;;;;;;;5016303;28;20214;-80
2023/12/28 06:03:36;;;;;;;2.78;0.50;;;;;;;;;;5015868;28;20199;-81
2023/12/28 06:06:07;;;;;;;1.65;0.70;;;;;;;;;;5008778;28;20209;-81
2023/12/28 06:08:37;;;;;;;0.75;0.50;;;;;;;;;;5012460;28;20237;-81
2023/12/28 06:11:08;;;;;;;0.90;0.60;;;;;;;;;;5015747;28;20230;-81
2023/12/28 06:13:38;;;;;;;1.08;0.60;;;;;;;;;;5010993;28;20197;-81
2023/12/28 06:16:08;;;;;;;2.50;0.50;;;;;;;;;;5007327;28;20199;-79
2023/12/28 06:18:38;;;;;;;1.63;0.50;;;;;;;;;;5014880;28;20199;-80
2023/12/28 06:21:08;;;;;;;1.88;0.63;;;;;;;;;;5020487;28;20663;-80
2023/12/28 06:23:38;;;;;;;0.95;0.50;;;;;;;;;;5015367;28;20210;-81
2023/12/28 06:26:10;;;;;;;1.05;0.70;;;;;;;;;;5000272;28;20202;-81
2023/12/28 06:28:40;;;;;;;2.25;0.50;;;;;;;;;;5007631;28;20187;-81
2023/12/28 06:31:10;;;;;;;2.03;0.60;;;;;;;;;;5014433;28;20593;-81
2023/12/28 06:33:40;;;;;;;1.27;0.60;;;;;;;;;;5003116;28;20207;-81
2023/12/28 06:36:10;;;;;;;1.05;0.60;;;;;;;;;;4996665;28;20777;-80
2023/12/28 06:38:41;;;;;;;1.90;0.60;;;;;;;;;;4996577;28;20214;-81
2023/12/28 06:41:16;;;;;;;2.67;0.45;;;;;;;;;;5003803;28;20227;-80
2023/12/28 06:43:46;;;;;;;1.63;0.47;;;;;;;;;;4995345;28;20198;-82
2023/12/28 06:46:16;;;;;;;1.17;0.57;;;;;;;;;;5002493;28;20745;-83
2023/12/28 06:48:46;;;;;;;1.73;0.50;;;;;;;;;;5002800;28;20557;-80
2023/12/28 06:51:20;;;;;;;1.48;0.40;;;;;;;;;;5009829;28;20230;-79
2023/12/28 06:53:50;;;;;;;1.63;0.50;;;;;;;;;;5008486;28;20184;-80
2023/12/28 06:56:22;;;;;;;0.65;0.50;;;;;;;;;;5014374;28;20237;-79
2023/12/28 06:58:52;;;;;;;0.70;0.50;;;;;;;;;;5013733;28;20686;-80
2023/12/28 07:01:22;;;;;;;1.73;0.60;;;;;;;;;;5004096;28;20675;-80
2023/12/28 07:03:52;;;;;;;1.60;0.60;;;;;;;;;;5002601;28;20206;-80
2023/12/28 07:06:21;;;;;;;1.58;0.70;;;;;;;;;;4995083;28;20203;-80
2023/12/28 07:08:51;;;;;;;2.97;0.50;;;;;;;;;;5008114;28;20194;-79
2023/12/28 07:11:23;;;;;;;0.95;0.50;;;;;;;;;;5013933;28;20237;-79
2023/12/28 07:13:53;;;;;;;0.93;0.40;;;;;;;;;;5013590;28;20195;-79
2023/12/28 07:16:23;;;;;;;0.95;0.52;;;;;;;;;;4999715;28;20206;-79
2023/12/28 07:18:53;;;;;;;1.75;0.50;;;;;;;;;;4994678;28;20209;-79
2023/12/28 07:21:23;;;;;;;3.17;0.75;;;;;;;;;;5014060;28;20199;-78
2023/12/28 07:23:53;;;;;;;0.80;0.50;;;;;;;;;;5013898;28;20203;-80
2023/12/28 07:26:25;;;;;;;2.40;0.80;;;;;;;;;;5013984;28;20290;-80
2023/12/28 07:28:55;;;;;;;0.68;0.55;;;;;;;;;;5007346;28;20194;-79
2023/12/28 07:31:28;;;;;;;1.95;0.50;;;;;;;;;;4995503;28;20231;-79
2023/12/28 07:33:57;;;;;;;1.65;0.70;;;;;;;;;;5021200;28;20285;-78
2023/12/28 07:36:27;;;;;;;1.45;0.50;;;;;;;;;;5002818;28;20214;-78
2023/12/28 07:38:57;;;;;;;1.00;0.60;;;;;;;;;;5012867;28;20195;-78
2023/12/28 07:41:29;;;;;;;0.60;0.60;;;;;;;;;;5005747;28;20259;-80
2023/12/28 07:43:59;;;;;;;1.73;0.50;;;;;;;;;;4994401;28;20197;-79
2023/12/28 07:46:29;;;;;;;2.58;0.80;;;;;;;;;;5008132;28;20203;-79
2023/12/28 07:48:59;;;;;;;2.13;0.47;;;;;;;;;;5013102;28;20191;-79
2023/12/28 07:51:29;;;;;;;2.03;0.80;;;;;;;;;;4998740;28;20691;-80
2023/12/28 07:53:59;;;;;;;1.88;0.50;;;;;;;;;;5007654;28;20205;-79
2023/12/28 07:56:31;;;;;;;1.55;0.60;;;;;;;;;;5006329;28;20230;-78
2023/12/28 07:59:01;;;;;;;1.77;0.60;;;;;;;;;;4999471;28;20258;-80
2023/12/28 08:01:32;;;;;;;2.13;0.70;;;;;;;;;;4993599;28;20623;-79
2023/12/28 08:04:03;;;;;;;1.05;0.43;;;;;;;;;;5004131;28;20583;-79
2023/12/28 08:06:33;;;;;;;3.20;0.70;;;;;;;;;;5011771;28;20191;-79
2023/12/28 08:09:03;;;;;;;1.65;0.43;;;;;;;;;;5004976;28;20286;-79
2023/12/28 08:11:35;;;;;;;1.05;0.50;;;;;;;;;;5013058;28;20690;-80
2023/12/28 08:14:05;;;;;;;2.85;0.60;;;;;;;;;;5011901;28;20678;-79
2023/12/28 08:16:36;;;;;;;0.73;0.50;;;;;;;;;;5013852;28;20207;-81
2023/12/28 08:19:06;;;;;;;3.28;0.55;;;;;;;;;;5012071;28;20202;-80
2023/12/28 08:21:36;;;;;;;1.05;0.50;;;;;;;;;;5012388;28;20202;-81
2023/12/28 08:24:06;;;;;;;1.40;0.60;;;;;;;;;;5011206;28;20225;-80
2023/12/28 08:26:38;;;;;;;2.55;0.70;;;;;;;;;;5004414;28;20198;-81
2023/12/28 08:29:08;;;;;;;1.35;0.55;;;;;;;;;;4993845;28;20286;-81
2023/12/28 08:31:38;;;;;;;3.30;0.68;;;;;;;;;;5000742;28;20226;-80
2023/12/28 08:34:08;;;;;;;1.50;0.60;;;;;;;;;;4999887;28;20209;-80
2023/12/28 08:36:38;;;;;;;1.20;0.60;;;;;;;;;;5012303;28;20207;-80
2023/12/28 08:39:08;;;;;;;0.73;0.50;;;;;;;;;;5012216;28;20213;-79
2023/12/28 08:41:39;;;;;;;1.42;0.55;;;;;;;;;;5013097;28;20222;-80
2023/12/28 08:44:09;;;;;;;5.22;1.10;;;;;;;;;;5012447;28;20219;-81
2023/12/28 08:46:39;;;;;;;2.63;0.50;;;;;;;;;;5005576;28;20205;-81
2023/12/28 08:49:09;;;;;;;0.50;0.40;;;;;;;;;;5012656;28;20286;-80
2023/12/28 08:51:39;;;;;;;1.05;0.47;;;;;;;;;;5012997;28;20226;-81
2023/12/28 08:54:10;;;;;;;0.85;0.40;;;;;;;;;;5012895;28;20214;-79
2023/12/28 08:56:42;;;;;;;0.60;0.50;;;;;;;;;;5003634;28;20226;-80
2023/12/28 08:59:11;;;;;;;2.53;0.52;;;;;;;;;;5007368;28;20230;-79
2023/12/28 09:01:41;;;;;;;2.63;0.77;;;;;;;;;;5008558;28;20213;-80
2023/12/28 09:04:11;;;;;;;1.17;0.65;;;;;;;;;;4999362;28;20204;-81
2023/12/28 09:06:41;;;;;;;2.83;0.52;;;;;;;;;;5005537;28;20341;-81
2023/12/28 09:09:11;;;;;;;1.33;0.57;;;;;;;;;;5012085;28;20228;-81
2023/12/28 09:11:44;;;;;;;0.65;0.65;;;;;;;;;;5013075;28;20210;-79
2023/12/28 09:14:14;;;;;;;1.30;0.55;;;;;;;;;;5013402;28;20201;-80
2023/12/28 09:16:44;;;;;;;1.98;0.60;;;;;;;;;;5017719;28;20195;-79
2023/12/28 09:19:14;;;;;;;2.65;0.80;;;;;;;;;;5013395;28;20577;-80
2023/12/28 09:21:44;;;;;;;2.47;0.70;;;;;;;;;;5015996;28;20231;-79
2023/12/28 09:24:14;;;;;;;1.55;0.70;;;;;;;;;;5016000;28;20207;-79
2023/12/28 09:26:46;;;;;;;1.33;0.50;;;;;;;;;;5010758;28;20647;-80
2023/12/28 09:29:16;;;;;;;1.88;0.60;;;;;;;;;;5004031;28;20207;-79
2023/12/28 09:31:46;;;;;;;1.92;0.60;;;;;;;;;;5015951;28;20237;-81
2023/12/28 09:34:16;;;;;;;0.50;0.43;;;;;;;;;;5016124;28;20207;-80
2023/12/28 09:36:46;;;;;;;1.40;0.70;;;;;;;;;;5009839;28;20205;-80
2023/12/28 09:39:16;;;;;;;2.55;0.60;;;;;;;;;;5013724;28;20648;-80
2023/12/28 09:41:52;;;;;;;2.60;0.75;;;;;;;;;;5015129;28;20659;-79
2023/12/28 09:44:22;;;;;;;1.73;0.60;;;;;;;;;;5015550;28;20281;-80
2023/12/28 09:46:53;;;;;;;2.90;0.70;;;;;;;;;;5015618;28;20278;-79
2023/12/28 09:49:24;;;;;;;1.35;0.60;;;;;;;;;;5015673;28;20210;-80
2023/12/28 09:51:54;;;;;;;2.90;0.60;;;;;;;;;;5002955;28;20214;-79
2023/12/28 09:54:24;;;;;;;1.23;0.50;;;;;;;;;;5015910;28;20199;-79
2023/12/28 09:56:56;;;;;;;1.25;0.50;;;;;;;;;;5015646;28;20235;-79
2023/12/28 09:59:27;;;;;;;0.93;0.60;;;;;;;;;;5014790;28;20226;-77
2023/12/28 10:01:58;;;;;;;2.67;0.73;;;;;;;;;;5015410;28;20553;-77
2023/12/28 10:04:28;;;;;;;0.73;0.47;;;;;;;;;;5015391;28;20275;-80
2023/12/28 10:06:59;;;;;;;4.68;0.70;;;;;;;;;;5006852;28;20313;-79
2023/12/28 10:09:30;;;;;;;6.80;1.20;;;;;;;;;;5008766;28;20206;-79
2023/12/28 10:12:03;;;;;;;1.50;0.60;;;;;;;;;;5010695;28;20306;-79
2023/12/28 10:14:34;;;;;;;1.13;0.63;;;;;;;;;;5014838;28;20235;-81
2023/12/28 10:17:04;;;;;;;1.98;1.00;;;;;;;;;;5014880;28;20231;-78
2023/12/28 10:19:34;;;;;;;1.33;0.60;;;;;;;;;;5014558;28;20203;-79
2023/12/28 10:22:04;;;;;;;2.63;1.00;;;;;;;;;;5012982;28;20199;-79
2023/12/28 10:24:34;;;;;;;1.75;0.70;;;;;;;;;;5008124;28;20274;-79
2023/12/28 10:27:06;;;;;;;1.52;0.70;;;;;;;;;;5010909;28;20230;-79
2023/12/28 10:29:36;;;;;;;2.03;0.77;;;;;;;;;;5014557;28;20205;-79
2023/12/28 10:32:06;;;;;;;3.15;0.70;;;;;;;;;;5013417;28;20239;-80
2023/12/28 10:34:36;;;;;;;1.05;0.70;;;;;;;;;;5013912;28;20572;-79
2023/12/28 10:37:13;;;;;;;1.70;0.93;;;;;;;;;;5015283;28;20207;-80
2023/12/28 10:39:49;;;;;;;1.33;0.80;;;;;;;;;;5015255;28;20197;-79
2023/12/28 10:42:25;;;;;;;1.63;0.63;;;;;;;;;;5014896;28;20194;-83
2023/12/28 10:44:56;;;;;;;1.60;0.90;;;;;;;;;;5014714;28;20201;-79
2023/12/28 10:47:28;;;;;;;2.17;0.90;;;;;;;;;;5014733;28;20191;-81
2023/12/28 10:49:59;;;;;;;0.73;0.60;;;;;;;;;;5014999;28;20278;-80
2023/12/28 10:52:30;;;;;;;1.73;0.80;;;;;;;;;;5009519;28;20299;-80
2023/12/28 10:55:05;;;;;;;2.50;0.80;;;;;;;;;;5016574;28;20191;-79
2023/12/28 10:57:39;;;;;;;3.40;0.70;;;;;;;;;;5014393;28;20198;-79
2023/12/28 11:00:11;;;;;;;0.75;0.50;;;;;;;;;;5014816;28;20194;-79
2023/12/28 11:02:42;;;;;;;1.60;0.50;;;;;;;;;;5014826;28;20566;-79
2023/12/28 11:05:12;;;;;;;2.75;0.70;;;;;;;;;;5014702;28;20195;-79
2023/12/28 11:07:43;;;;;;;1.70;0.50;;;;;;;;;;5014680;28;20213;-80
2023/12/28 11:10:13;;;;;;;0.73;0.50;;;;;;;;;;5014052;28;20201;-80
2023/12/28 11:12:46;;;;;;;1.17;0.60;;;;;;;;;;5014143;28;20690;-80
2023/12/28 11:15:16;;;;;;;1.48;0.50;;;;;;;;;;5014475;28;20187;-80
2023/12/28 11:17:46;;;;;;;1.05;0.60;;;;;;;;;;5013928;28;20573;-80
2023/12/28 11:20:17;;;;;;;2.53;0.70;;;;;;;;;;5014314;28;20207;-81
2023/12/28 11:22:47;;;;;;;2.05;0.55;;;;;;;;;;5014394;28;20257;-80
2023/12/28 11:25:20;;;;;;;2.03;0.70;;;;;;;;;;5013958;28;20210;-80
2023/12/28 11:27:52;;;;;;;1.48;0.52;;;;;;;;;;5008927;28;20254;-80
2023/12/28 11:30:29;;;;;;;1.30;0.60;;;;;;;;;;5009089;28;20194;-79
2023/12/28 11:33:00;;;;;;;1.48;0.52;;;;;;;;;;5002179;28;20207;-79
2023/12/28 11:35:37;;;;;;;1.15;0.65;;;;;;;;;;5010769;28;20188;-79
2023/12/28 11:38:09;;;;;;;1.05;0.50;;;;;;;;;;5010061;28;20199;-80
2023/12/28 11:40:44;;;;;;;1.48;0.70;;;;;;;;;;5000538;28;20275;-81
2023/12/28 11:43:26;;;;;;;1.25;0.60;;;;;;;;;;5011671;28;20277;-80
2023/12/28 11:45:58;;;;;;;2.10;0.68;;;;;;;;;;5018448;28;20191;-80
2023/12/28 11:48:29;;;;;;;1.27;0.65;;;;;;;;;;5019723;28;20197;-80
2023/12/28 11:50:59;;;;;;;2.00;0.80;;;;;;;;;;5003488;28;20211;-79
2023/12/28 11:53:29;;;;;;;2.05;0.85;;;;;;;;;;4996362;28;20215;-80
2023/12/28 11:56:09;;;;;;;2.80;0.80;;;;;;;;;;5001498;28;20224;-80
2023/12/28 11:58:44;;;;;;;2.40;0.73;;;;;;;;;;4997874;28;20709;-79
2023/12/28 12:01:13;;;;;;;1.42;0.60;;;;;;;;;;5004442;28;20191;-79
2023/12/28 12:03:44;;;;;;;1.52;0.60;;;;;;;;;;4994097;28;20254;-79
2023/12/28 12:06:14;;;;;;;1.50;0.63;;;;;;;;;;5002998;28;20199;-81
2023/12/28 12:08:44;;;;;;;2.95;0.60;;;;;;;;;;5001000;28;20573;-80
2023/12/28 12:11:15;;;;;;;2.42;0.80;;;;;;;;;;5012201;28;20202;-80
2023/12/28 12:13:47;;;;;;;1.73;0.90;;;;;;;;;;5012214;28;20587;-80
2023/12/28 12:16:17;;;;;;;2.42;0.73;;;;;;;;;;5002098;28;20190;-80
2023/12/28 12:18:47;;;;;;;2.08;0.82;;;;;;;;;;4998924;28;20636;-80
2023/12/28 12:21:17;;;;;;;1.55;0.50;;;;;;;;;;5011742;28;20191;-80
2023/12/28 12:23:47;;;;;;;1.17;0.52;;;;;;;;;;5014084;28;20199;-80
2023/12/28 12:26:21;;;;;;;0.95;0.85;;;;;;;;;;5012240;28;20194;-80
2023/12/28 12:28:53;;;;;;;1.70;0.80;;;;;;;;;;5009007;28;20194;-80
2023/12/28 12:31:23;;;;;;;1.00;0.60;;;;;;;;;;5012782;28;20279;-80
2023/12/28 12:33:53;;;;;;;1.33;0.73;;;;;;;;;;5011120;28;20222;-80
2023/12/28 12:36:23;;;;;;;1.98;0.80;;;;;;;;;;4998393;28;20198;-79
2023/12/28 12:38:53;;;;;;;1.77;0.63;;;;;;;;;;4999143;28;20226;-79
2023/12/28 12:41:23;;;;;;;2.70;0.77;;;;;;;;;;4998759;28;20215;-79
2023/12/28 12:43:56;;;;;;;3.05;0.70;;;;;;;;;;5004871;28;20662;-79
2023/12/28 12:46:26;;;;;;;1.40;0.70;;;;;;;;;;5013343;28;20188;-80
2023/12/28 12:48:59;;;;;;;1.30;0.70;;;;;;;;;;5012860;28;20195;-79
2023/12/28 12:51:30;;;;;;;1.42;0.68;;;;;;;;;;5013017;28;20576;-80
2023/12/28 12:54:00;;;;;;;1.92;0.70;;;;;;;;;;5013106;28;20215;-79
2023/12/28 12:56:31;;;;;;;1.80;0.63;;;;;;;;;;5015957;28;20231;-79
2023/12/28 12:59:03;;;;;;;1.73;0.88;;;;;;;;;;5016548;28;20225;-79
2023/12/28 13:01:33;;;;;;;3.10;1.00;;;;;;;;;;5016803;28;20197;-80
2023/12/28 13:04:03;;;;;;;2.45;0.70;;;;;;;;;;5015501;28;20221;-80
2023/12/28 13:06:33;;;;;;;1.52;0.80;;;;;;;;;;5032448;28;20186;-80
2023/12/28 13:09:06;;;;;;;2.72;0.70;;;;;;;;;;5036577;28;20201;-80
2023/12/28 13:11:36;;;;;;;1.70;0.60;;;;;;;;;;5006666;28;20195;-80
2023/12/28 13:14:08;;;;;;;2.53;0.70;;;;;;;;;;4997501;28;20231;-80
2023/12/28 13:16:38;;;;;;;2.28;0.82;;;;;;;;;;4997098;28;20196;-80
2023/12/28 13:19:08;;;;;;;3.10;0.75;;;;;;;;;;5018010;28;20210;-80
2023/12/28 13:21:38;;;;;;;1.50;0.80;;;;;;;;;;5016603;28;20202;-80
2023/12/28 13:24:08;;;;;;;1.23;0.70;;;;;;;;;;5016652;28;20297;-80
2023/12/28 13:26:38;;;;;;;1.55;0.75;;;;;;;;;;5016497;28;20207;-80
2023/12/28 13:29:10;;;;;;;1.92;0.80;;;;;;;;;;5013123;28;20202;-80
2023/12/28 13:31:40;;;;;;;2.72;0.90;;;;;;;;;;5015952;28;20312;-80
2023/12/28 13:34:10;;;;;;;2.10;0.80;;;;;;;;;;5015764;28;20211;-80
2023/12/28 13:36:40;;;;;;;1.45;0.60;;;;;;;;;;5016273;28;20634;-79
2023/12/28 13:39:13;;;;;;;1.83;0.70;;;;;;;;;;5016716;28;20209;-80
2023/12/28 13:41:43;;;;;;;1.40;0.70;;;;;;;;;;5016251;28;20225;-79
2023/12/28 13:44:15;;;;;;;0.85;0.75;;;;;;;;;;5016195;28;20327;-80
2023/12/28 13:46:45;;;;;;;1.45;0.80;;;;;;;;;;5015504;28;20199;-80
2023/12/28 13:49:15;;;;;;;2.60;0.90;;;;;;;;;;4996611;28;20214;-81
2023/12/28 13:51:46;;;;;;;2.72;0.90;;;;;;;;;;4996557;28;20208;-80
2023/12/28 13:54:16;;;;;;;1.67;0.90;;;;;;;;;;4996555;28;20310;-80
2023/12/28 13:56:46;;;;;;;2.25;0.93;;;;;;;;;;4996968;28;20235;-80
2023/12/28 13:59:17;;;;;;;2.55;0.90;;;;;;;;;;4996273;28;20652;-80
2023/12/28 14:01:48;;;;;;;1.38;0.93;;;;;;;;;;4996654;28;20196;-80
2023/12/28 14:04:17;;;;;;;2.58;1.00;;;;;;;;;;4996377;28;20203;-81
2023/12/28 14:06:47;;;;;;;3.13;1.00;;;;;;;;;;4995102;28;20303;-80
2023/12/28 14:09:20;;;;;;;2.25;1.00;;;;;;;;;;4996213;28;20199;-80
2023/12/28 14:11:50;;;;;;;1.65;1.02;;;;;;;;;;4996139;28;20663;-80
2023/12/28 14:14:22;;;;;;;0.88;0.80;;;;;;;;;;4996193;28;20239;-81
2023/12/28 14:16:52;;;;;;;3.00;1.13;;;;;;;;;;4996018;28;20239;-80
2023/12/28 14:19:21;;;;;;;2.88;1.00;;;;;;;;;;4996471;28;20286;-81
2023/12/28 14:21:52;;;;;;;3.15;0.90;;;;;;;;;;4995941;28;20206;-81
2023/12/28 14:24:22;;;;;;;3.70;1.10;;;;;;;;;;4996145;28;20207;-80
2023/12/28 14:26:54;;;;;;;2.28;0.90;;;;;;;;;;4995803;28;20203;-81
2023/12/28 14:29:26;;;;;;;1.17;0.90;;;;;;;;;;4995857;28;20202;-80
2023/12/28 14:31:56;;;;;;;3.00;1.15;;;;;;;;;;5001332;28;20200;-81
2023/12/28 14:34:27;;;;;;;2.53;1.00;;;;;;;;;;4999804;28;20705;-80
2023/12/28 14:36:57;;;;;;;2.78;1.00;;;;;;;;;;5000056;28;20206;-80
2023/12/28 14:39:27;;;;;;;3.97;1.23;;;;;;;;;;5003933;28;20195;-80
2023/12/28 14:41:58;;;;;;;4.88;1.17;;;;;;;;;;5006425;28;20279;-80
2023/12/28 14:44:29;;;;;;;1.88;1.00;;;;;;;;;;5012969;28;20195;-81
2023/12/28 14:46:59;;;;;;;4.38;1.00;;;;;;;;;;5010635;28;20287;-80
2023/12/28 14:49:29;;;;;;;1.88;0.80;;;;;;;;;;4996278;28;20652;-80
2023/12/28 14:51:59;;;;;;;3.53;0.85;;;;;;;;;;4997796;28;20191;-80
2023/12/28 14:54:29;;;;;;;3.17;1.00;;;;;;;;;;5014786;28;20250;-80
2023/12/28 14:56:59;;;;;;;2.00;0.90;;;;;;;;;;5014348;28;20591;-80
2023/12/28 14:59:31;;;;;;;2.67;1.10;;;;;;;;;;5014687;28;20195;-80
2023/12/28 15:02:01;;;;;;;3.22;1.00;;;;;;;;;;5014426;28;20221;-80
2023/12/28 15:04:31;;;;;;;3.58;1.10;;;;;;;;;;5001282;28;20210;-80